UDYZ/EVN METAR and TAF weather

Enter ICAO airport designator
Station Type Date Time Source
UDYZ METAR 2022/05/25 01:00 UTC NOAA

UDYZ 250100Z 05002KT 9999 SCT043 09/07 Q1015 R09/190060 NOSIG


Station Type Date Time Source
UDYZ Decoded METAR 2022/05/25 01:00 UTC NOAA

Station name not available
May 24, 2022 - 09:00 PM EDT / 2022.05.25 0100 UTC
Wind: from the NE (050 degrees) at 2 MPH (2 KT):0
Visibility: greater than 7 mile(s):0
Sky conditions: partly cloudy
Temperature: 48 F (9 C)
Dew Point: 44 F (7 C)
Relative Humidity: 87%
Pressure (altimeter): 29.97 in. Hg (1015 hPa)
ob: UDYZ 250100Z 05002KT 9999 SCT043 09/07 Q1015 R09/190060 NOSIG
cycle: 1

Station Type Date Time Source
UDYZ TAF 2022/05/24 18:00 UTC NOAA

TAF UDYZ 241700Z 2418/2518 16006KT 6000 BKN040
TEMPO 2418/2501 VRB20KT -TSRA SCT007 BKN030CB

Example: see airport list